Time;durP1;ratioP1;P1;durP2;ratioP2;P2;SDS_P1;SDS_P2;PMS_P1;PMS_P2;Temp;Humidity;BMP_temperature;BMP_pressure;BME280_temperature;BME280_humidity;BME280_pressure;Samples;Min_cycle;Max_cycle;Signal;HPM_P1;HPM_P2
2022/09/24 00:02:00;;;;;;;6.38;5.00;;;13.50;77.20;;;16.61;49.95;97348.09;5027534;28;20049;-44
2022/09/24 00:04:28;;;;;;;7.05;5.60;;;13.50;76.80;;;16.63;50.15;97344.16;5027975;28;20050;-45
2022/09/24 00:06:56;;;;;;;7.60;5.35;;;13.50;76.80;;;16.64;50.13;97343.13;5028229;28;20391;-43
2022/09/24 00:09:24;;;;;;;6.93;5.28;;;13.60;76.70;;;16.65;50.11;97338.56;5027499;28;20045;-46
2022/09/24 00:11:52;;;;;;;5.35;4.85;;;13.60;76.50;;;16.66;50.04;97337.56;5024513;28;20050;-45
2022/09/24 00:14:20;;;;;;;6.85;5.32;;;13.60;76.30;;;16.65;50.04;97342.09;5027247;28;20313;-44
2022/09/24 00:16:48;;;;;;;8.02;5.18;;;13.60;76.40;;;16.65;50.28;97336.72;5028227;28;20060;-45
2022/09/24 00:19:16;;;;;;;6.07;4.93;;;13.60;76.60;;;16.68;50.01;97330.09;5027530;28;20568;-44
2022/09/24 00:21:44;;;;;;;7.75;5.30;;;13.60;76.60;;;16.66;50.25;97333.00;5028199;28;20067;-46
2022/09/24 00:26:48;;;;;;;6.05;4.70;;;13.60;76.80;;;16.66;49.91;97330.31;5027722;28;20056;-45
2022/09/24 00:27:05;;;;;;;8.52;4.55;;;13.60;76.80;;;16.69;50.12;97329.06;5027889;28;20057;-43
2022/09/24 00:29:34;;;;;;;6.72;4.90;;;13.60;76.80;;;16.68;50.11;97325.56;5042526;28;20069;-45
2022/09/24 00:32:04;;;;;;;7.18;4.32;;;13.60;77.00;;;16.71;50.22;97321.63;5027405;28;20079;-44
2022/09/24 00:34:33;;;;;;;6.70;4.32;;;13.60;77.00;;;16.74;50.13;97322.03;5027181;28;20053;-45
2022/09/24 00:37:01;;;;;;;5.20;4.50;;;13.60;76.70;;;16.76;50.14;97318.31;5028453;28;20279;-44
2022/09/24 00:39:28;;;;;;;4.45;4.05;;;13.60;76.90;;;16.73;50.12;97317.69;5027932;28;20355;-43
2022/09/24 00:41:56;;;;;;;5.90;4.30;;;13.60;76.80;;;16.72;49.98;97323.28;5027445;28;20045;-44
2022/09/24 00:44:49;;;;;;;7.10;4.40;;;13.60;76.70;;;16.69;50.10;97321.84;5026303;28;20051;-47
2022/09/24 00:47:28;;;;;;;6.22;4.82;;;13.60;77.10;;;16.69;50.24;97324.53;5026695;28;20248;-48
2022/09/24 00:50:22;;;;;;;6.68;5.55;;;13.60;77.50;;;16.72;50.46;97318.72;5026417;28;20049;-45
2022/09/24 00:53:05;;;;;;;6.75;5.22;;;13.60;77.60;;;16.80;50.02;97312.31;5027811;28;20348;-45
2022/09/24 00:55:35;;;;;;;6.90;5.07;;;13.60;77.30;;;16.78;49.92;97305.50;5027773;28;20065;-44
2022/09/24 00:58:07;;;;;;;6.25;4.95;;;13.60;77.00;;;16.78;50.10;97303.63;5027050;28;20055;-46
2022/09/24 01:00:43;;;;;;;6.10;5.38;;;13.70;77.00;;;16.81;50.31;97297.00;5026609;28;20045;-44
2022/09/24 01:03:15;;;;;;;6.82;5.35;;;13.70;76.90;;;16.80;49.85;97298.03;5025904;28;20053;-44
2022/09/24 01:05:43;;;;;;;6.15;5.10;;;13.70;76.80;;;16.77;50.19;97304.69;5026192;28;20060;-43
2022/09/24 01:08:16;;;;;;;6.05;5.45;;;13.70;76.90;;;16.78;50.05;97289.38;5026105;28;20045;-44
2022/09/24 01:11:37;;;;;;;10.25;7.60;;;13.70;77.10;;;16.80;50.00;97295.34;5027585;28;20406;-44
2022/09/24 01:14:12;;;;;;;9.40;6.38;;;13.60;77.00;;;16.78;49.86;97292.06;5026378;28;20255;-44
2022/09/24 01:17:06;;;;;;;9.90;7.80;;;13.60;77.00;;;16.71;50.09;97292.91;5025185;28;20076;-43
2022/09/24 01:20:16;;;;;;;8.48;6.40;;;13.60;77.40;;;16.70;49.99;97287.72;5026633;28;20355;-43
2022/09/24 01:23:19;;;;;;;10.55;6.78;;;13.60;77.50;;;16.68;49.98;97281.72;5026198;28;20051;-44
2022/09/24 01:26:18;;;;;;;11.10;6.88;;;13.50;77.50;;;16.63;50.15;97278.84;5026809;28;20248;-44
2022/09/24 01:29:27;;;;;;;11.90;7.65;;;13.50;77.60;;;16.56;50.26;97268.09;5027719;28;20063;-43
2022/09/24 01:32:39;;;;;;;9.95;6.85;;;13.50;78.10;;;16.47;50.26;97270.16;5027031;28;20281;-44
2022/09/24 01:35:27;;;;;;;7.78;5.20;;;13.40;77.70;;;16.37;50.38;97275.13;5025918;28;20053;-46
2022/09/24 01:38:08;;;;;;;5.35;4.78;;;13.20;78.10;;;16.28;50.48;97271.00;5027042;28;20063;-44
2022/09/24 01:40:38;;;;;;;6.68;4.47;;;13.10;78.40;;;16.24;50.41;97264.38;5026233;28;20045;-44
2022/09/24 01:43:09;;;;;;;5.75;5.07;;;13.10;78.20;;;16.17;50.79;97258.19;5025304;28;20449;-45
2022/09/24 01:45:38;;;;;;;6.22;5.10;;;13.10;78.30;;;16.12;50.86;97256.13;5026145;28;20251;-45
2022/09/24 01:48:07;;;;;;;7.75;5.97;;;13.00;79.30;;;16.12;50.76;97259.63;5024846;28;20045;-44
2022/09/24 01:50:56;;;;;;;7.40;5.50;;;13.00;78.50;;;16.09;50.70;97257.38;5026054;28;20056;-46
2022/09/24 01:53:30;;;;;;;7.22;5.70;;;13.00;78.70;;;16.10;50.81;97253.63;5025558;28;20578;-46
2022/09/24 01:56:20;;;;;;;8.02;5.57;;;13.00;78.80;;;16.14;50.44;97252.19;5024437;28;20446;-43
2022/09/24 01:59:01;;;;;;;7.78;6.15;;;13.00;78.50;;;16.21;50.65;97244.16;5009706;28;20064;-45
2022/09/24 02:01:51;;;;;;;8.85;6.55;;;13.10;78.50;;;16.24;50.56;97246.41;5024532;28;20061;-43
2022/09/24 02:04:22;;;;;;;6.97;5.95;;;13.10;78.30;;;16.26;50.38;97248.91;5026412;28;20055;-44
2022/09/24 02:07:03;;;;;;;13.25;6.65;;;13.10;77.90;;;16.28;50.54;97242.28;5026997;28;20057;-44
2022/09/24 02:09:42;;;;;;;7.53;6.07;;;13.10;77.80;;;16.28;50.31;97230.72;5026097;28;20255;-44
2022/09/24 02:12:16;;;;;;;9.52;5.57;;;13.20;78.20;;;16.28;50.53;97223.47;5026505;28;20200;-44
2022/09/24 02:14:53;;;;;;;8.68;6.75;;;13.20;78.30;;;16.27;50.63;97224.53;5026137;28;20058;-43
2022/09/24 02:17:29;;;;;;;10.77;5.75;;;13.20;78.30;;;16.27;50.68;97227.19;5026645;28;20057;-43
2022/09/24 02:20:01;;;;;;;8.43;6.30;;;13.20;78.30;;;16.26;50.44;97224.72;5027127;28;20057;-45
2022/09/24 02:22:31;;;;;;;8.18;5.90;;;13.10;78.10;;;16.29;50.45;97229.69;5024764;28;20056;-43
2022/09/24 02:25:02;;;;;;;7.65;5.95;;;13.20;77.90;;;16.30;50.73;97231.31;5023391;28;20045;-43
2022/09/24 02:27:31;;;;;;;10.25;6.85;;;13.20;78.00;;;16.31;50.58;97230.31;5024516;28;20069;-46
2022/09/24 02:29:59;;;;;;;8.20;5.85;;;13.20;78.10;;;16.31;50.47;97224.94;5027795;28;20629;-44
2022/09/24 02:32:33;;;;;;;8.65;5.97;;;13.20;78.00;;;16.33;50.79;97225.56;5029686;28;20058;-43
2022/09/24 02:35:06;;;;;;;9.65;7.03;;;13.20;78.00;;;16.34;50.44;97228.03;5028619;28;20041;-43
2022/09/24 02:37:40;;;;;;;;;;;13.20;78.20;;;16.41;49.94;97222.63;5029422;28;20041;-45
2022/09/24 02:40:12;;;;;;;9.98;6.90;;;13.10;78.90;;;16.38;50.37;97219.53;5030227;28;19924;-43
2022/09/24 02:42:42;;;;;;;7.40;6.10;;;13.10;78.90;;;16.29;50.81;97217.06;5028151;28;20060;-44
2022/09/24 02:45:11;;;;;;;14.25;8.00;;;13.10;79.20;;;16.26;50.92;97219.34;5029603;28;20053;-44
2022/09/24 02:47:39;;;;;;;9.82;7.68;;;13.10;79.30;;;16.26;51.00;97224.72;5031026;28;20055;-43
2022/09/24 02:50:07;;;;;;;9.82;7.63;;;13.10;79.30;;;16.25;50.92;97233.81;5029231;28;20052;-45
2022/09/24 02:52:35;;;;;;;9.63;7.35;;;13.10;79.40;;;16.24;50.83;97222.22;5030185;28;20057;-45
2022/09/24 02:55:03;;;;;;;10.70;7.90;;;13.10;79.60;;;16.21;50.80;97228.03;5028895;28;20057;-45
2022/09/24 02:57:31;;;;;;;10.32;7.50;;;13.10;79.60;;;16.18;50.98;97236.50;5030805;28;20061;-46
2022/09/24 02:59:59;;;;;;;9.05;6.95;;;13.00;79.70;;;16.17;51.00;97237.53;5029626;28;20069;-43
2022/09/24 03:02:27;;;;;;;8.43;7.22;;;13.00;80.10;;;16.15;51.16;97236.94;5029349;28;20053;-43
2022/09/24 03:04:55;;;;;;;10.63;8.40;;;13.00;80.20;;;16.16;51.37;97235.06;5029463;28;20771;-45
2022/09/24 03:07:23;;;;;;;8.25;7.07;;;13.00;80.30;;;16.14;51.19;97224.53;5029635;28;20059;-46
2022/09/24 03:09:51;;;;;;;7.50;6.80;;;13.00;80.50;;;16.13;51.09;97218.34;5028720;28;20045;-45
2022/09/24 03:12:18;;;;;;;9.18;7.30;;;13.00;80.50;;;16.14;51.08;97211.91;5029444;28;20061;-44
2022/09/24 03:14:46;;;;;;;10.48;7.63;;;13.00;80.60;;;16.14;51.33;97209.22;5041823;28;20055;-45
2022/09/24 03:17:14;;;;;;;10.10;7.60;;;13.00;80.50;;;16.13;51.32;97207.59;5030283;28;20053;-45
2022/09/24 03:19:42;;;;;;;12.38;7.55;;;13.00;80.70;;;16.13;51.34;97198.72;5029335;28;20370;-43
2022/09/24 03:22:09;;;;;;;11.88;8.10;;;13.00;80.90;;;16.14;51.39;97211.09;5028483;28;20044;-44
2022/09/24 03:24:37;;;;;;;10.27;7.18;;;13.00;80.80;;;16.13;51.60;97209.47;5029155;28;20366;-42
2022/09/24 03:27:05;;;;;;;7.85;6.72;;;13.10;81.00;;;16.14;51.52;97203.84;5029986;28;20259;-44
2022/09/24 03:32:19;;;;;;;9.27;7.60;;;13.00;80.30;;;16.17;51.17;97194.56;5030013;28;20061;-44
2022/09/24 03:34:47;;;;;;;9.70;7.53;;;13.10;80.30;;;16.18;51.45;97193.53;5028542;28;20053;-43
2022/09/24 03:37:15;;;;;;;9.50;7.80;;;13.10;80.40;;;16.19;51.42;97189.81;5027125;28;20057;-44
2022/09/24 03:39:42;;;;;;;9.48;8.18;;;13.10;80.50;;;16.20;51.22;97191.47;5029546;28;20061;-44
2022/09/24 03:42:10;;;;;;;11.02;7.88;;;13.10;80.30;;;16.20;51.49;97194.16;5027616;28;20059;-46
2022/09/24 03:44:38;;;;;;;9.57;7.45;;;13.10;81.20;;;16.23;51.46;97199.13;5029090;28;20057;-45
2022/09/24 03:47:06;;;;;;;10.32;7.45;;;13.20;80.30;;;16.22;51.38;97194.75;5027557;28;20061;-48
2022/09/24 03:49:34;;;;;;;9.82;7.45;;;13.10;80.40;;;16.22;51.51;97193.94;5028902;28;20339;-45
2022/09/24 03:52:02;;;;;;;9.30;7.22;;;13.10;80.20;;;16.22;51.54;97197.44;5028950;28;20056;-43
2022/09/24 03:54:30;;;;;;;13.60;8.15;;;13.10;80.40;;;16.24;51.24;97194.56;5028198;28;20343;-46
2022/09/24 03:56:57;;;;;;;9.23;6.25;;;13.10;80.40;;;16.25;51.28;97191.66;5030372;28;20091;-45
2022/09/24 03:59:25;;;;;;;9.77;6.82;;;13.10;80.30;;;16.25;51.10;97196.22;5028428;28;20053;-44
2022/09/24 04:01:54;;;;;;;8.85;7.40;;;13.20;80.10;;;16.23;51.38;97200.97;5028274;28;20075;-43
2022/09/24 04:04:21;;;;;;;10.40;6.55;;;13.20;79.90;;;16.23;51.56;97193.75;5028462;28;20045;-45
2022/09/24 04:06:51;;;;;;;8.38;6.80;;;13.20;80.00;;;16.24;51.21;97194.56;5028222;28;20055;-43
2022/09/24 04:09:18;;;;;;;7.47;6.47;;;13.10;80.10;;;16.23;51.33;97188.38;5027678;28;20057;-44
2022/09/24 04:11:46;;;;;;;8.90;6.90;;;13.10;80.20;;;16.19;51.42;97194.34;5029068;28;20053;-44
2022/09/24 04:14:14;;;;;;;9.48;6.63;;;13.00;80.50;;;16.15;51.51;97180.53;5028584;28;20071;-45
2022/09/24 04:16:42;;;;;;;11.48;7.05;;;13.00;80.80;;;16.14;51.52;97174.31;5028766;28;20055;-43
2022/09/24 04:19:10;;;;;;;9.23;6.57;;;13.00;80.80;;;16.10;51.68;97174.94;5028527;28;20092;-44
2022/09/24 04:21:38;;;;;;;9.07;6.40;;;13.00;80.90;;;16.08;51.69;97180.53;5028002;28;20056;-45
2022/09/24 04:24:06;;;;;;;8.15;6.72;;;13.00;81.20;;;16.08;51.46;97179.72;5028421;28;20041;-45
2022/09/24 04:26:34;;;;;;;9.30;6.78;;;13.00;81.30;;;16.09;51.89;97176.81;5028103;28;20041;-44
2022/09/24 04:29:04;;;;;;;15.60;11.90;;;12.90;81.50;;;16.10;51.67;97177.63;5028451;28;20052;-45
2022/09/24 04:31:32;;;;;;;20.00;12.52;;;12.90;82.40;;;16.09;51.68;97176.81;5027555;28;20041;-45
2022/09/24 04:34:00;;;;;;;19.55;12.48;;;12.90;81.70;;;16.09;51.71;97176.81;5027192;28;20076;-44
2022/09/24 04:36:28;;;;;;;17.92;11.50;;;12.90;82.00;;;16.10;51.55;97183.00;5028359;28;20058;-44
2022/09/24 04:38:56;;;;;;;16.73;11.02;;;12.90;81.80;;;16.07;51.68;97176.19;5027281;28;20045;-44
2022/09/24 04:41:24;;;;;;;11.52;9.43;;;12.90;82.00;;;16.04;51.76;97173.09;5027237;28;20075;-43
2022/09/24 04:43:51;;;;;;;13.50;9.68;;;12.90;82.20;;;16.05;51.68;97167.53;5026581;28;20041;-46
2022/09/24 04:46:19;;;;;;;10.73;8.13;;;12.90;82.40;;;16.06;51.83;97161.13;5027833;28;20076;-46
2022/09/24 04:48:47;;;;;;;9.48;8.13;;;12.90;82.30;;;16.07;51.89;97173.53;5027909;28;20060;-43
2022/09/24 04:51:18;;;;;;;13.43;9.20;;;12.90;82.10;;;16.09;51.90;97174.13;5026672;28;20052;-44
2022/09/24 04:53:46;;;;;;;10.32;8.10;;;13.00;82.00;;;16.10;51.80;97177.63;5027208;28;20061;-43
2022/09/24 04:56:14;;;;;;;9.38;8.13;;;13.00;82.00;;;16.10;51.93;97170.41;5026981;28;20411;-43
2022/09/24 04:58:43;;;;;;;11.00;7.75;;;13.00;82.10;;;16.11;52.02;97160.47;5026815;28;20056;-42
2022/09/24 05:01:12;;;;;;;11.43;7.47;;;13.00;82.20;;;16.09;51.90;97159.84;5026103;28;20053;-44
2022/09/24 05:03:40;;;;;;;10.45;7.90;;;13.00;82.40;;;16.09;51.95;97160.72;5026578;28;20236;-44
2022/09/24 05:06:07;;;;;;;10.27;8.02;;;13.00;82.10;;;16.06;52.03;97160.28;5026670;28;20049;-46
2022/09/24 05:08:35;;;;;;;9.85;8.30;;;12.90;82.50;;;16.05;52.06;97167.53;5028050;28;20063;-45
2022/09/24 05:11:03;;;;;;;10.80;8.43;;;12.90;83.00;;;16.04;51.94;97170.41;5027415;28;20217;-44
2022/09/24 05:13:31;;;;;;;8.50;7.60;;;12.90;83.00;;;16.03;52.11;97174.13;5027344;28;20059;-44
2022/09/24 05:15:59;;;;;;;8.48;7.63;;;12.90;83.10;;;15.98;52.43;97174.75;5027398;28;20237;-44
2022/09/24 05:18:27;;;;;;;9.13;7.78;;;12.80;83.20;;;15.98;52.56;97176.63;5026356;28;20049;-46
2022/09/24 05:20:55;;;;;;;10.38;7.90;;;12.90;83.50;;;15.95;52.57;97183.22;5025857;28;20053;-47
2022/09/24 05:23:23;;;;;;;9.60;7.68;;;12.80;83.50;;;15.94;52.40;97176.19;5027873;28;20049;-44
2022/09/24 05:28:39;;;;;;;9.88;8.85;;;12.80;84.10;;;15.95;52.35;97177.84;5027209;28;20224;-46
2022/09/24 05:31:09;;;;;;;12.55;9.70;;;12.80;84.20;;;15.92;52.42;97187.13;5027569;28;20059;-45
2022/09/24 05:33:37;;;;;;;12.25;9.70;;;12.80;84.20;;;15.93;52.55;97185.28;5026569;28;20079;-45
2022/09/24 05:36:05;;;;;;;13.80;10.70;;;12.80;84.40;;;15.91;52.55;97187.34;5026336;28;20233;-45
2022/09/24 05:38:33;;;;;;;8.45;7.60;;;12.70;84.50;;;15.87;52.59;97189.59;5025808;28;20064;-46
2022/09/24 05:41:01;;;;;;;11.07;8.65;;;12.70;84.80;;;15.87;52.49;97194.16;5027585;28;20071;-45
2022/09/24 05:43:30;;;;;;;8.82;7.93;;;12.70;85.00;;;15.86;52.59;97192.53;5027996;28;20049;-47
2022/09/24 05:45:58;;;;;;;8.27;7.35;;;12.60;85.30;;;15.83;52.52;97188.38;5025569;28;20041;-47
2022/09/24 05:48:26;;;;;;;8.35;6.70;;;12.60;85.70;;;15.75;52.88;97202.00;5025831;28;20240;-44
2022/09/24 05:50:54;;;;;;;7.05;6.25;;;12.60;86.00;;;15.77;52.68;97194.56;5027772;28;20343;-45
2022/09/24 05:53:23;;;;;;;9.80;7.22;;;12.60;86.20;;;15.83;52.88;97201.78;5026437;28;20247;-45
2022/09/24 05:55:51;;;;;;;8.45;7.10;;;12.70;86.20;;;15.88;52.67;97203.88;5024553;28;20057;-47
2022/09/24 05:58:19;;;;;;;11.18;8.15;;;12.80;86.00;;;15.89;52.91;97203.66;5027814;28;20061;-45
2022/09/24 06:00:47;;;;;;;8.57;6.78;;;12.80;85.70;;;15.87;52.62;97210.25;5026422;28;20049;-47
2022/09/24 06:03:17;;;;;;;10.07;7.43;;;12.80;86.00;;;15.84;52.96;97210.66;5025333;28;20059;-45
2022/09/24 06:05:50;;;;;;;10.18;7.28;;;12.70;86.10;;;15.84;52.88;97208.81;5044763;28;20057;-45
2022/09/24 06:08:19;;;;;;;7.40;6.65;;;12.70;86.40;;;15.78;53.11;97201.59;5030331;28;20347;-45
2022/09/24 06:10:48;;;;;;;6.90;6.20;;;12.60;86.80;;;15.79;53.12;97199.72;5030477;28;20041;-45
2022/09/24 06:13:18;;;;;;;9.10;5.93;;;12.60;87.40;;;15.79;53.30;97200.56;5029983;28;20051;-45
2022/09/24 06:15:46;;;;;;;8.45;6.30;;;12.60;87.50;;;15.78;53.21;97198.06;5027419;28;20061;-45
2022/09/24 06:18:14;;;;;;;8.52;6.47;;;12.70;87.50;;;15.82;53.25;97199.31;5030601;28;20063;-48
2022/09/24 06:20:43;;;;;;;9.43;7.47;;;12.70;87.30;;;15.89;53.11;97206.34;5030772;28;20057;-46
2022/09/24 06:23:11;;;;;;;9.68;6.38;;;12.80;87.00;;;15.93;52.95;97206.75;5029144;28;20047;-45
2022/09/24 06:25:38;;;;;;;8.32;6.32;;;12.80;86.90;;;16.00;53.10;97212.13;5030767;28;20065;-45
2022/09/24 06:28:06;;;;;;;8.02;6.22;;;13.00;86.70;;;16.06;52.91;97216.69;5031005;28;20049;-44
2022/09/24 06:30:43;;;;;;;8.32;6.60;;;13.00;86.00;;;16.09;52.70;97213.56;5029185;28;20056;-45
2022/09/24 06:33:12;;;;;;;8.65;6.78;;;13.00;85.70;;;16.08;52.78;97226.16;5030229;28;20053;-45
2022/09/24 06:35:42;;;;;;;7.93;6.80;;;13.00;85.70;;;16.06;53.02;97225.56;5030903;28;20075;-45
2022/09/24 06:38:14;;;;;;;8.32;6.50;;;13.00;86.20;;;16.13;52.91;97223.69;5030046;28;20041;-47
2022/09/24 06:40:44;;;;;;;7.25;6.00;;;13.10;86.10;;;16.13;52.82;97221.00;5030085;28;20071;-45
2022/09/24 06:43:13;;;;;;;8.35;5.95;;;13.10;86.20;;;16.17;53.05;97225.94;5029020;28;20068;-47
2022/09/24 06:45:44;;;;;;;7.88;6.38;;;13.10;86.60;;;16.15;53.10;97226.19;5029949;28;20232;-46
2022/09/24 06:48:13;;;;;;;9.27;6.20;;;13.10;86.30;;;16.24;53.21;97218.72;5030418;28;20041;-46
2022/09/24 06:50:44;;;;;;;5.95;5.35;;;13.20;86.00;;;16.31;53.09;97225.75;5029150;28;20049;-46
2022/09/24 06:53:12;;;;;;;7.15;6.45;;;13.30;85.90;;;16.37;52.84;97232.16;5028899;28;20053;-44
2022/09/24 06:55:41;;;;;;;7.88;5.45;;;13.40;85.00;;;16.35;52.60;97236.91;5029558;28;20058;-47
2022/09/24 06:58:19;;;;;;;9.48;6.30;;;13.30;84.60;;;16.36;52.52;97235.03;5027763;28;20068;-47
2022/09/24 07:00:53;;;;;;;8.18;5.85;;;13.30;84.30;;;16.43;52.47;97242.06;5030726;28;20775;-48
2022/09/24 07:03:21;;;;;;;6.88;5.53;;;13.40;83.70;;;16.48;52.06;97233.41;5029133;28;20059;-46
2022/09/24 07:05:49;;;;;;;8.57;5.50;;;13.50;83.00;;;16.54;51.98;97227.19;5028750;28;20041;-50
2022/09/24 07:08:17;;;;;;;9.38;6.72;;;13.60;82.90;;;16.59;52.01;97221.16;5030218;28;20049;-52
2022/09/24 07:10:51;;;;;;;8.40;6.53;;;13.60;82.20;;;16.66;52.10;97220.13;5030183;28;20405;-46
2022/09/24 07:13:22;;;;;;;;;;;13.70;81.90;;;16.85;51.90;97229.22;5029206;28;20049;-49
2022/09/24 07:15:51;;;;;;;8.45;6.20;;;13.80;81.40;;;16.91;51.45;97239.09;5027978;28;19947;-49
2022/09/24 07:18:23;;;;;;;14.88;8.57;;;13.90;81.50;;;16.93;51.61;97247.78;5028962;28;20057;-46
2022/09/24 07:20:55;;;;;;;11.38;8.55;;;14.00;81.00;;;16.97;51.46;97237.44;5027743;28;20049;-47
2022/09/24 07:23:25;;;;;;;13.33;9.80;;;14.00;80.50;;;17.04;52.06;97243.63;5027554;28;20050;-45
2022/09/24 07:25:55;;;;;;;10.95;7.30;;;14.10;81.70;;;17.10;51.88;97244.66;5028895;28;20038;-45
2022/09/24 07:28:24;;;;;;;7.72;6.10;;;14.20;81.70;;;17.18;51.34;97260.53;5029422;28;20060;-48
2022/09/24 07:30:59;;;;;;;7.72;5.90;;;14.20;80.70;;;17.22;50.99;97259.06;5028152;28;20061;-45
2022/09/24 07:33:29;;;;;;;5.55;4.90;;;14.20;79.50;;;17.25;50.78;97268.56;5028067;28;20067;-46
2022/09/24 07:35:57;;;;;;;8.27;6.60;;;14.30;78.70;;;17.21;50.55;97256.59;5028447;28;20255;-48
2022/09/24 07:38:25;;;;;;;6.88;4.97;;;14.20;78.30;;;17.24;50.34;97264.25;5028713;28;20061;-44
2022/09/24 07:40:57;;;;;;;6.95;5.70;;;14.30;78.00;;;17.28;50.53;97260.91;5028405;28;20061;-48
2022/09/24 07:43:27;;;;;;;7.20;5.57;;;14.30;77.50;;;17.30;50.24;97266.91;5027443;28;20053;-46
2022/09/24 07:45:56;;;;;;;7.10;5.85;;;14.30;77.30;;;17.37;50.56;97266.88;5028118;28;20057;-45
2022/09/24 07:48:24;;;;;;;8.48;5.97;;;14.40;77.10;;;17.41;50.30;97273.50;5029381;28;20059;-47
2022/09/24 07:50:54;;;;;;;7.57;5.57;;;14.40;76.80;;;17.49;50.09;97280.50;5026924;28;20351;-46
2022/09/24 07:53:23;;;;;;;9.52;7.80;;;14.50;76.70;;;17.55;50.95;97274.25;5027854;28;20053;-47
2022/09/24 07:55:51;;;;;;;8.90;7.70;;;14.60;78.70;;;17.60;51.15;97285.22;5014734;28;20049;-45
2022/09/24 07:58:19;;;;;;;9.07;6.57;;;14.60;79.40;;;17.62;50.21;97282.28;5027183;28;20073;-46
2022/09/24 08:00:47;;;;;;;8.02;6.20;;;14.60;77.40;;;17.62;50.00;97275.06;5026712;28;20080;-45
2022/09/24 08:03:16;;;;;;;6.78;5.30;;;14.60;77.00;;;17.67;49.99;97279.78;5027362;28;20047;-48
2022/09/24 08:05:45;;;;;;;7.65;5.63;;;14.60;76.10;;;17.64;49.80;97278.34;5034962;28;20065;-45
2022/09/24 08:08:13;;;;;;;8.45;7.55;;;14.60;76.20;;;17.65;49.54;97274.59;5037192;28;20047;-46
2022/09/24 08:10:42;;;;;;;8.65;7.18;;;14.60;75.90;;;17.70;49.31;97273.97;5040069;28;20259;-46
2022/09/24 08:13:10;;;;;;;8.02;6.53;;;14.60;75.60;;;17.70;49.58;97274.78;5040938;28;20259;-47
2022/09/24 08:15:38;;;;;;;10.13;6.30;;;14.60;75.60;;;17.72;49.53;97269.19;5040320;28;20057;-48
2022/09/24 08:18:06;;;;;;;8.75;6.95;;;14.70;75.60;;;17.69;49.55;97275.81;5039045;28;20048;-48
2022/09/24 08:20:37;;;;;;;8.77;6.45;;;14.70;75.30;;;17.75;49.44;97282.22;5040097;28;20041;-46
2022/09/24 08:23:11;;;;;;;10.77;8.95;;;14.70;75.50;;;17.78;49.45;97271.03;5039532;28;20056;-48
2022/09/24 08:25:39;;;;;;;9.10;7.25;;;14.70;75.40;;;17.79;49.53;97269.97;5039207;28;20369;-45
2022/09/24 08:28:10;;;;;;;8.65;7.72;;;14.80;75.40;;;17.81;49.79;97269.75;5027942;28;20244;-47
2022/09/24 08:30:39;;;;;;;8.43;6.72;;;14.80;75.80;;;17.84;50.16;97266.66;5027657;28;20060;-45
2022/09/24 08:33:08;;;;;;;10.13;7.25;;;14.90;76.20;;;17.89;50.47;97274.91;5027931;28;20336;-47
2022/09/24 08:35:40;;;;;;;10.57;8.15;;;15.00;76.50;;;17.96;50.80;97273.00;5027593;28;20053;-47
2022/09/24 08:38:08;;;;;;;11.05;7.53;;;15.10;77.40;;;18.04;50.83;97277.31;5027357;28;20067;-48
2022/09/24 08:40:45;;;;;;;13.88;8.48;;;15.20;78.00;;;18.10;51.01;97288.03;5026544;28;20055;-46
2022/09/24 08:43:36;;;;;;;11.98;8.55;;;15.20;78.50;;;18.13;50.81;97289.47;5026194;28;20065;-51
2022/09/24 08:49:19;;;;;;;10.73;8.93;;;15.20;77.90;;;18.24;50.35;97301.41;5028255;28;20247;-47
2022/09/24 08:52:08;;;;;;;15.70;9.07;;;15.30;77.50;;;18.25;50.43;97287.72;5026186;28;20065;-50
2022/09/24 08:54:37;;;;;;;9.82;7.95;;;15.30;77.10;;;18.30;50.48;97293.28;5027821;28;20049;-46
2022/09/24 08:57:13;;;;;;;11.02;7.65;;;15.40;77.30;;;18.33;50.39;97294.72;5027197;28;20041;-47
2022/09/24 08:59:48;;;;;;;9.68;7.78;;;15.40;77.30;;;18.36;50.49;97290.75;5026255;28;20049;-47
2022/09/24 09:02:46;;;;;;;10.65;7.75;;;15.40;77.30;;;18.38;50.25;97288.66;5026962;28;20340;-48
2022/09/24 09:05:45;;;;;;;13.02;9.05;;;15.40;76.90;;;18.43;50.37;97288.81;5027420;28;20057;-49
2022/09/24 09:08:28;;;;;;;14.40;8.00;;;15.50;77.20;;;18.46;50.70;97283.00;5025125;28;20041;-46
2022/09/24 09:11:24;;;;;;;9.90;7.70;;;15.50;77.90;;;18.57;50.43;97287.69;5025887;28;20065;-47
2022/09/24 09:13:59;;;;;;;11.35;8.02;;;15.60;77.70;;;18.66;50.38;97283.63;5026763;28;20045;-47
2022/09/24 09:16:35;;;;;;;11.95;8.30;;;15.70;77.60;;;18.76;50.42;97295.78;5023989;28;20057;-46
2022/09/24 09:19:08;;;;;;;10.75;8.00;;;15.80;77.30;;;18.85;50.13;97300.72;5025878;28;20056;-49
2022/09/24 09:21:42;;;;;;;9.60;7.45;;;16.00;76.60;;;19.00;49.92;97302.22;5026628;28;20241;-45
2022/09/24 09:24:22;;;;;;;9.90;8.05;;;16.10;76.20;;;18.97;49.82;97300.78;5026268;28;20211;-46
2022/09/24 09:26:54;;;;;;;14.73;8.45;;;16.10;75.70;;;18.99;49.71;97287.09;5026293;28;20053;-47
2022/09/24 09:29:26;;;;;;;8.57;7.73;;;16.10;75.70;;;19.01;50.05;97291.22;5025567;28;20340;-45
2022/09/24 09:32:38;;;;;;;9.43;7.95;;;16.20;75.80;;;19.08;50.08;97288.47;5026015;28;20072;-45
2022/09/24 09:35:34;;;;;;;11.15;8.00;;;16.30;76.00;;;19.14;49.81;97287.56;5027017;28;20046;-47
2022/09/24 09:38:46;;;;;;;8.88;7.63;;;16.30;75.20;;;19.17;49.84;97288.97;5027605;28;20059;-51
2022/09/24 09:41:38;;;;;;;11.13;8.05;;;16.30;75.40;;;19.20;49.78;97283.94;5023318;28;20064;-46
2022/09/24 09:44:29;;;;;;;10.00;7.57;;;16.30;75.20;;;19.25;49.71;97284.09;5007146;28;20053;-48
2022/09/24 09:47:40;;;;;;;11.23;7.75;;;16.40;75.10;;;19.31;49.82;97293.19;5025258;28;20053;-47
2022/09/24 09:50:36;;;;;;;10.18;8.73;;;16.40;75.60;;;19.37;49.60;97286.06;5026058;28;20053;-48
2022/09/24 09:53:04;;;;;;;11.82;7.97;;;16.40;75.30;;;19.36;49.79;97282.50;5027072;28;20387;-44
2022/09/24 09:55:37;;;;;;;10.30;7.40;;;16.40;75.80;;;19.38;49.56;97285.81;5026828;28;20045;-47
2022/09/24 09:58:20;;;;;;;13.32;8.68;;;16.40;75.10;;;19.47;49.59;97272.84;5026581;28;20068;-48
2022/09/24 10:00:49;;;;;;;12.52;9.55;;;16.50;74.90;;;19.54;49.57;97272.75;5023612;28;20047;-49
2022/09/24 10:03:30;;;;;;;10.45;8.13;;;16.60;75.20;;;19.59;49.60;97273.72;5025469;28;20057;-47
2022/09/24 10:06:05;;;;;;;9.57;8.43;;;16.70;75.10;;;19.60;49.80;97277.22;5025946;28;20046;-50
2022/09/24 10:08:33;;;;;;;11.52;8.30;;;16.70;75.80;;;19.60;49.66;97285.31;5026267;28;20053;-48
2022/09/24 10:11:02;;;;;;;10.30;9.18;;;16.70;75.50;;;19.61;49.71;97284.28;5022086;28;20053;-46
2022/09/24 10:13:33;;;;;;;10.25;8.85;;;16.70;75.80;;;19.62;49.51;97277.84;5025522;28;20343;-48
2022/09/24 10:16:07;;;;;;;11.68;8.60;;;16.70;75.10;;;19.66;49.61;97279.03;5025717;28;20060;-48
2022/09/24 10:18:42;;;;;;;8.45;7.60;;;16.80;75.00;;;19.73;49.37;97273.56;5026867;28;20255;-49
2022/09/24 10:21:14;;;;;;;10.30;8.25;;;16.80;75.00;;;19.78;49.25;97279.13;5024112;28;20059;-47
2022/09/24 10:23:48;;;;;;;10.05;7.50;;;16.80;74.80;;;19.79;49.33;97278.91;5025983;28;20064;-46
2022/09/24 10:26:16;;;;;;;10.40;7.53;;;16.80;74.60;;;19.85;49.27;97279.84;5025241;28;20048;-47
2022/09/24 10:31:38;;;;;;;9.23;7.28;;;17.00;74.50;;;19.98;48.77;97276.13;5023995;28;20057;-47
2022/09/24 10:34:23;;;;;;;14.00;7.72;;;17.00;74.00;;;20.03;49.02;97281.69;5026052;28;20051;-47
2022/09/24 10:37:12;;;;;;;11.73;7.65;;;17.10;73.80;;;20.09;48.55;97283.44;5025066;28;20050;-47
2022/09/24 10:39:40;;;;;;;13.13;8.13;;;17.20;73.30;;;20.09;48.70;97282.63;5026687;28;20045;-46
2022/09/24 10:42:28;;;;;;;12.15;8.35;;;17.20;73.50;;;20.11;48.74;97280.53;5026489;28;20045;-47
2022/09/24 10:45:03;;;;;;;9.98;8.15;;;17.20;73.60;;;20.11;49.02;97284.03;5025921;28;20050;-47
2022/09/24 10:48:07;;;;;;;8.35;7.40;;;17.10;74.10;;;20.12;49.15;97279.44;5024922;28;20054;-48
2022/09/24 10:50:43;;;;;;;10.40;8.07;;;17.10;74.20;;;20.11;48.83;97275.94;5007230;28;20080;-46
2022/09/24 10:53:51;;;;;;;13.48;8.05;;;17.10;74.00;;;20.05;49.03;97272.28;5028978;28;20048;-44
2022/09/24 10:56:46;;;;;;;9.10;8.27;;;17.10;74.00;;;20.12;48.93;97279.44;5029516;28;20052;-45